createdAt,value
2018-07-20T00:01:51.119Z,44.43
2018-07-20T00:04:18.319Z,44.67
2018-07-20T00:06:45.367Z,45.08
2018-07-20T00:09:12.733Z,45.07
2018-07-20T00:11:39.748Z,44.97
2018-07-20T00:14:06.774Z,44.90
2018-07-20T00:16:34.137Z,45.12
2018-07-20T00:19:01.175Z,45.15
2018-07-20T00:21:28.201Z,45.15
2018-07-20T00:23:55.656Z,45.58
2018-07-20T00:26:22.673Z,45.49
2018-07-20T00:28:49.738Z,45.97
2018-07-20T00:31:17.073Z,46.09
2018-07-20T00:33:44.086Z,45.72
2018-07-20T00:36:11.100Z,45.80
2018-07-20T00:38:38.550Z,46.33
2018-07-20T00:41:05.593Z,46.04
2018-07-20T00:43:32.592Z,46.29
2018-07-20T00:46:00.008Z,46.28
2018-07-20T00:48:27.052Z,46.56
2018-07-20T00:50:54.095Z,46.99
2018-07-20T00:53:21.466Z,46.63
2018-07-20T00:55:48.440Z,46.75
2018-07-20T00:58:15.447Z,47.18
2018-07-20T01:00:42.687Z,46.95
2018-07-20T01:03:09.810Z,47.33
2018-07-20T01:05:37.029Z,47.15
2018-07-20T01:08:04.386Z,47.31
2018-07-20T01:10:31.371Z,47.39
2018-07-20T01:12:58.614Z,47.10
2018-07-20T01:15:26.093Z,47.35
2018-07-20T01:17:53.187Z,47.54
2018-07-20T01:20:20.249Z,47.57
2018-07-20T01:22:47.622Z,47.21
2018-07-20T01:25:14.713Z,47.28
2018-07-20T01:27:41.698Z,47.31
2018-07-20T01:30:09.272Z,47.36
2018-07-20T01:32:36.321Z,47.85
2018-07-20T01:35:03.349Z,47.49
2018-07-20T01:37:30.528Z,47.78
2018-07-20T01:39:57.642Z,47.68
2018-07-20T01:42:24.624Z,47.78
2018-07-20T01:44:52.086Z,47.80
2018-07-20T01:47:19.157Z,48.15
2018-07-20T01:49:46.174Z,48.28
2018-07-20T01:52:13.607Z,48.13
2018-07-20T01:54:40.695Z,48.22
2018-07-20T01:57:07.668Z,48.51
2018-07-20T01:59:34.978Z,48.58
2018-07-20T02:02:02.088Z,48.40
2018-07-20T02:04:29.104Z,48.94
2018-07-20T02:06:56.924Z,48.51
2018-07-20T02:09:23.940Z,48.57
2018-07-20T02:11:50.972Z,48.52
2018-07-20T02:14:18.388Z,49.25
2018-07-20T02:16:45.354Z,48.74
2018-07-20T02:19:12.399Z,48.93
2018-07-20T02:21:39.948Z,49.21
2018-07-20T02:24:07.588Z,48.87
2018-07-20T02:26:34.657Z,49.26
2018-07-20T02:29:02.152Z,49.35
2018-07-20T02:31:29.174Z,49.40
2018-07-20T02:33:56.821Z,49.16
2018-07-20T02:36:24.800Z,49.62
2018-07-20T02:38:52.383Z,49.75
2018-07-20T02:41:19.458Z,49.51
2018-07-20T02:43:47.023Z,49.62
2018-07-20T02:46:13.995Z,49.52
2018-07-20T02:48:40.985Z,50.10
2018-07-20T02:51:08.412Z,50.03
2018-07-20T02:53:35.412Z,50.79
2018-07-20T02:56:02.424Z,50.74
2018-07-20T02:58:29.896Z,50.87
2018-07-20T03:00:56.862Z,50.73
2018-07-20T03:03:23.897Z,50.72
2018-07-20T03:05:51.311Z,51.03
2018-07-20T03:08:18.413Z,51.58
2018-07-20T03:10:45.408Z,51.30
2018-07-20T03:13:12.885Z,51.56
2018-07-20T03:15:39.951Z,51.77
2018-07-20T03:18:07.048Z,51.50
2018-07-20T03:20:34.697Z,51.49
2018-07-20T03:23:01.752Z,51.54
2018-07-20T03:25:28.790Z,51.63
2018-07-20T03:27:56.137Z,52.15
2018-07-20T03:30:23.287Z,51.83
2018-07-20T03:32:50.317Z,51.89
2018-07-20T03:35:17.645Z,52.11
2018-07-20T03:37:44.658Z,52.46
2018-07-20T03:40:11.753Z,52.56
2018-07-20T03:42:39.260Z,52.22
2018-07-20T03:48:04.537Z,52.63
2018-07-20T03:50:31.655Z,52.80
2018-07-20T03:52:58.696Z,52.36
2018-07-20T03:55:26.199Z,52.88
2018-07-20T03:57:53.716Z,52.98
2018-07-20T04:00:20.798Z,52.90
2018-07-20T04:02:48.068Z,52.57
2018-07-20T04:05:15.198Z,52.47
2018-07-20T04:07:42.269Z,53.18
2018-07-20T04:10:09.904Z,53.12
2018-07-20T04:12:36.949Z,53.38
2018-07-20T04:15:03.967Z,52.87
2018-07-20T04:17:40.794Z,53.13
2018-07-20T04:20:07.870Z,53.60
2018-07-20T04:22:35.155Z,53.71
2018-07-20T04:25:02.291Z,53.22
2018-07-20T04:27:29.272Z,53.68
2018-07-20T04:29:56.474Z,53.56
2018-07-20T04:32:23.745Z,54.02
2018-07-20T04:34:50.767Z,53.94
2018-07-20T04:37:17.916Z,53.52
2018-07-20T04:39:45.263Z,53.97
2018-07-20T04:42:12.297Z,54.15
2018-07-20T04:44:39.498Z,54.12
2018-07-20T04:47:06.761Z,53.77
2018-07-20T04:49:34.021Z,53.78
2018-07-20T04:52:01.245Z,54.43
2018-07-20T04:54:28.489Z,53.78
2018-07-20T04:56:55.530Z,53.73
2018-07-20T04:59:23.132Z,53.91
2018-07-20T05:01:50.415Z,54.48
2018-07-20T05:04:17.438Z,54.62
2018-07-20T05:06:44.701Z,54.49
2018-07-20T05:09:11.865Z,54.61
2018-07-20T05:11:39.407Z,54.17
2018-07-20T05:14:06.679Z,54.64
2018-07-20T05:16:33.967Z,54.44
2018-07-20T05:19:00.969Z,54.14
2018-07-20T05:21:28.011Z,53.95
2018-07-20T05:23:55.692Z,54.41
2018-07-20T05:26:22.697Z,53.71
2018-07-20T05:28:49.845Z,54.00
2018-07-20T05:31:17.104Z,54.48
2018-07-20T05:33:44.184Z,54.14
2018-07-20T05:36:11.800Z,54.40
2018-07-20T05:38:39.051Z,54.30
2018-07-20T05:41:06.112Z,54.34
2018-07-20T05:43:33.341Z,53.79
2018-07-20T05:46:00.517Z,53.88
2018-07-20T05:48:27.513Z,54.35
2018-07-20T05:50:54.641Z,54.35
2018-07-20T05:53:21.778Z,54.18
2018-07-20T05:55:48.752Z,53.95
2018-07-20T05:58:15.987Z,53.63
2018-07-20T06:00:43.430Z,54.13
2018-07-20T06:03:10.488Z,54.18
2018-07-20T06:05:37.795Z,53.63
2018-07-20T06:08:05.034Z,53.45
2018-07-20T06:10:32.080Z,53.42
2018-07-20T06:12:59.616Z,53.23
2018-07-20T06:15:26.846Z,53.01
2018-07-20T06:17:53.833Z,52.96
2018-07-20T06:20:21.065Z,52.57
2018-07-20T06:22:48.303Z,52.99
2018-07-20T06:25:15.333Z,52.27
2018-07-20T06:27:42.501Z,52.11
2018-07-20T06:30:09.614Z,51.91
2018-07-20T06:32:36.907Z,52.20
2018-07-20T06:35:04.022Z,51.78
2018-07-20T06:37:31.234Z,51.67
2018-07-20T06:39:58.867Z,51.56
2018-07-20T06:42:26.111Z,51.96
2018-07-20T06:44:53.356Z,51.70
2018-07-20T06:47:20.412Z,51.06
2018-07-20T06:49:47.562Z,51.42
2018-07-20T06:52:14.745Z,50.75
2018-07-20T06:54:41.669Z,50.95
2018-07-20T06:57:09.007Z,50.50
2018-07-20T06:59:36.245Z,50.60
2018-07-20T07:02:03.321Z,50.54
2018-07-20T07:04:30.496Z,50.02
2018-07-20T07:06:57.733Z,50.67
2018-07-20T07:09:24.842Z,50.02
2018-07-20T07:12:22.768Z,50.14
2018-07-20T07:14:49.946Z,50.26
2018-07-20T07:17:17.063Z,50.18
2018-07-20T07:19:44.398Z,50.04
2018-07-20T07:22:11.413Z,49.80
2018-07-20T07:24:38.447Z,49.17
2018-07-20T07:27:05.817Z,49.12
2018-07-20T07:29:32.837Z,48.02
2018-07-20T07:31:59.935Z,47.46
2018-07-20T07:34:27.341Z,47.41
2018-07-20T07:36:54.358Z,47.45
2018-07-20T07:39:21.397Z,46.94
2018-07-20T07:41:48.854Z,46.64
2018-07-20T07:44:15.833Z,45.94
2018-07-20T07:46:42.823Z,46.55
2018-07-20T07:49:10.191Z,46.06
2018-07-20T07:51:37.282Z,45.62
2018-07-20T07:54:04.522Z,45.92
2018-07-20T07:56:31.864Z,45.31
2018-07-20T07:58:59.751Z,44.75
2018-07-20T08:01:26.774Z,44.49
2018-07-20T08:03:54.040Z,44.92
2018-07-20T08:06:21.267Z,44.33
2018-07-20T08:08:48.244Z,44.36
2018-07-20T08:11:15.392Z,43.87
2018-07-20T08:13:42.796Z,43.64
2018-07-20T08:16:10.081Z,44.15
2018-07-20T08:18:37.232Z,43.88
2018-07-20T08:21:04.495Z,43.26
2018-07-20T08:23:31.479Z,42.91
2018-07-20T08:26:05.295Z,42.59
2018-07-20T08:28:32.645Z,42.63
2018-07-20T08:30:59.880Z,42.93
2018-07-20T08:33:27.167Z,42.80
2018-07-20T08:35:54.170Z,42.68
2018-07-20T08:38:21.500Z,41.80
2018-07-20T08:40:48.708Z,41.36
2018-07-20T08:43:15.726Z,41.62
2018-07-20T08:45:42.810Z,41.02
2018-07-20T08:48:10.095Z,41.46
2018-07-20T08:50:37.254Z,40.91
2018-07-20T08:53:04.534Z,40.71
2018-07-20T08:55:31.830Z,40.62
2018-07-20T08:57:58.891Z,40.28
2018-07-20T09:00:26.035Z,40.08
2018-07-20T09:02:53.299Z,40.03
2018-07-20T09:05:20.313Z,39.18
2018-07-20T09:07:47.419Z,39.38
2018-07-20T09:10:14.538Z,39.95
2018-07-20T09:12:41.499Z,39.15
2018-07-20T09:15:08.739Z,39.07
2018-07-20T09:17:36.062Z,38.75
2018-07-20T09:20:03.106Z,37.93
2018-07-20T09:22:30.266Z,37.81
2018-07-20T09:24:57.459Z,38.00
2018-07-20T09:27:24.461Z,37.92
2018-07-20T09:29:51.724Z,37.76
2018-07-20T09:32:18.915Z,37.77
2018-07-20T09:34:45.926Z,38.03
2018-07-20T09:37:13.071Z,37.56
2018-07-20T09:39:40.352Z,38.02
2018-07-20T09:42:07.417Z,37.37
2018-07-20T09:44:34.638Z,37.94
2018-07-20T09:47:01.789Z,37.40
2018-07-20T09:49:28.768Z,37.48
2018-07-20T09:51:55.949Z,37.61
2018-07-20T09:54:23.139Z,37.68
2018-07-20T09:56:50.196Z,37.21
2018-07-20T09:59:17.354Z,37.09
2018-07-20T10:01:45.031Z,36.49
2018-07-20T10:04:12.042Z,35.84
2018-07-20T10:06:39.318Z,35.63
2018-07-20T10:09:08.033Z,35.32
2018-07-20T10:11:35.191Z,35.34
2018-07-20T10:14:02.421Z,34.61
2018-07-20T10:16:29.678Z,33.79
2018-07-20T10:18:56.961Z,33.47
2018-07-20T10:21:24.243Z,32.89
2018-07-20T10:23:51.483Z,33.07
2018-07-20T10:26:18.484Z,32.06
2018-07-20T10:28:45.669Z,32.37
2018-07-20T10:31:13.769Z,31.51
2018-07-20T10:33:40.831Z,31.63
2018-07-20T10:36:08.120Z,31.30
2018-07-20T10:38:35.493Z,31.12
2018-07-20T10:41:02.460Z,30.72
2018-07-20T10:46:27.496Z,30.54
2018-07-20T10:48:54.732Z,30.36
2018-07-20T10:51:22.383Z,29.58
2018-07-20T10:53:50.197Z,29.19
2018-07-20T10:56:18.174Z,29.89
2018-07-20T10:58:45.788Z,28.88
2018-07-20T11:01:13.682Z,28.56
2018-07-20T11:03:41.495Z,28.34
2018-07-20T11:06:09.095Z,28.52
2018-07-20T11:08:36.862Z,28.08
2018-07-20T11:11:04.752Z,27.99
2018-07-20T11:13:32.396Z,28.01
2018-07-20T11:16:01.284Z,28.20
2018-07-20T11:18:29.070Z,27.76
2018-07-20T11:20:57.253Z,28.50
2018-07-20T11:23:25.113Z,27.78
2018-07-20T11:25:52.986Z,28.65
2018-07-20T11:28:20.649Z,28.48
2018-07-20T11:30:48.459Z,28.04
2018-07-20T11:33:16.406Z,27.92
2018-07-20T11:35:44.143Z,27.29
2018-07-20T11:38:12.109Z,27.08
2018-07-20T11:40:39.896Z,26.69
2018-07-20T11:43:07.689Z,26.90
2018-07-20T11:45:35.585Z,26.54
2018-07-20T11:48:03.461Z,26.89
2018-07-20T11:50:31.220Z,26.67
2018-07-20T11:52:58.980Z,26.06
2018-07-20T11:55:26.910Z,26.15
2018-07-20T11:57:54.607Z,26.86
2018-07-20T12:00:22.475Z,26.73
2018-07-20T12:02:50.171Z,26.75
2018-07-20T12:05:17.837Z,26.54
2018-07-20T12:07:45.604Z,26.23
2018-07-20T12:10:13.412Z,25.96
2018-07-20T12:12:41.114Z,26.39
2018-07-20T12:15:08.800Z,26.05
2018-07-20T12:17:36.699Z,26.21
2018-07-20T12:20:04.349Z,26.20
2018-07-20T12:22:32.212Z,26.44
2018-07-20T12:25:00.123Z,26.56
2018-07-20T12:27:27.702Z,26.66
2018-07-20T12:29:55.668Z,26.81
2018-07-20T12:32:23.558Z,26.64
2018-07-20T12:34:51.158Z,26.87
2018-07-20T12:37:19.010Z,26.69
2018-07-20T12:39:46.832Z,26.44
2018-07-20T12:42:14.429Z,26.58
2018-07-20T12:44:42.214Z,26.75
2018-07-20T12:47:10.041Z,27.12
2018-07-20T12:49:37.629Z,26.47
2018-07-20T12:52:05.355Z,26.96
2018-07-20T12:54:33.234Z,26.91
2018-07-20T12:57:00.751Z,26.58
2018-07-20T12:59:28.812Z,26.83
2018-07-20T13:01:57.021Z,26.32
2018-07-20T13:04:24.666Z,26.76
2018-07-20T13:06:53.170Z,26.66
2018-07-20T13:09:20.767Z,26.33
2018-07-20T13:11:48.998Z,26.63
2018-07-20T13:14:17.715Z,26.44
2018-07-20T13:16:45.277Z,26.62
2018-07-20T13:19:12.901Z,26.52
2018-07-20T13:21:40.142Z,26.23
2018-07-20T13:24:07.431Z,26.86
2018-07-20T13:26:34.440Z,27.47
2018-07-20T13:29:01.573Z,27.52
2018-07-20T13:31:28.548Z,27.86
2018-07-20T13:33:55.640Z,27.91
2018-07-20T13:36:22.949Z,28.28
2018-07-20T13:38:50.128Z,28.44
2018-07-20T13:41:17.091Z,28.84
2018-07-20T13:43:44.440Z,28.39
2018-07-20T13:46:11.333Z,28.36
2018-07-20T13:48:38.305Z,28.11
2018-07-20T13:51:05.782Z,29.08
2018-07-20T13:53:32.734Z,28.19
2018-07-20T13:55:59.657Z,28.86
2018-07-20T13:58:26.938Z,28.87
2018-07-20T14:00:53.931Z,28.16
2018-07-20T14:03:20.906Z,28.21
2018-07-20T14:05:48.498Z,28.96
2018-07-20T14:08:15.503Z,28.70
2018-07-20T14:10:42.422Z,29.07
2018-07-20T14:13:09.591Z,28.53
2018-07-20T14:15:36.613Z,28.59
2018-07-20T14:18:03.671Z,28.92
2018-07-20T14:20:30.840Z,29.35
2018-07-20T14:22:57.877Z,28.82
2018-07-20T14:25:25.067Z,29.18
2018-07-20T14:27:52.164Z,29.39
2018-07-20T14:30:19.167Z,29.66
2018-07-20T14:32:46.110Z,29.92
2018-07-20T14:35:13.395Z,29.81
2018-07-20T14:37:40.412Z,29.20
2018-07-20T14:40:07.947Z,29.91
2018-07-20T14:42:35.319Z,30.17
2018-07-20T14:45:03.404Z,30.40
2018-07-20T14:47:30.364Z,30.60
2018-07-20T14:49:57.774Z,29.88
2018-07-20T14:52:24.728Z,30.12
2018-07-20T14:54:51.730Z,30.59
2018-07-20T14:57:19.068Z,30.56
2018-07-20T14:59:46.055Z,30.45
2018-07-20T15:02:12.964Z,30.79
2018-07-20T15:04:40.491Z,30.76
2018-07-20T15:07:07.443Z,31.59
2018-07-20T15:09:34.434Z,31.47
2018-07-20T15:12:01.719Z,31.83
2018-07-20T15:14:28.701Z,31.38
2018-07-20T15:16:55.806Z,31.37
2018-07-20T15:19:23.291Z,32.29
2018-07-20T15:21:50.302Z,32.42
2018-07-20T15:24:17.270Z,31.78
2018-07-20T15:26:44.690Z,32.19
2018-07-20T15:29:11.611Z,31.77
2018-07-20T15:31:38.580Z,31.96
2018-07-20T15:34:06.369Z,32.10
2018-07-20T15:36:33.962Z,32.44
2018-07-20T15:39:01.005Z,31.94
2018-07-20T15:41:28.314Z,32.04
2018-07-20T15:43:55.331Z,32.52
2018-07-20T15:46:22.430Z,32.38
2018-07-20T15:48:49.828Z,31.97
2018-07-20T15:51:16.861Z,32.46
2018-07-20T15:53:43.847Z,32.94
2018-07-20T15:56:11.128Z,32.97
2018-07-20T15:58:38.150Z,32.94
2018-07-20T16:01:05.096Z,32.64
2018-07-20T16:03:32.360Z,33.41
2018-07-20T16:05:59.381Z,33.06
2018-07-20T16:08:26.348Z,33.12
2018-07-20T16:10:53.640Z,33.46
2018-07-20T16:13:20.605Z,33.25
2018-07-20T16:15:47.530Z,33.28
2018-07-20T16:18:14.845Z,33.80
2018-07-20T16:20:41.801Z,33.69
2018-07-20T16:23:08.774Z,33.39
2018-07-20T16:25:36.115Z,34.08
2018-07-20T16:28:03.258Z,33.14
2018-07-20T16:30:30.293Z,34.12
2018-07-20T16:32:57.767Z,33.48
2018-07-20T16:35:24.745Z,33.86
2018-07-20T16:37:51.704Z,33.82
2018-07-20T16:40:18.878Z,32.95
2018-07-20T16:42:45.803Z,33.33
2018-07-20T16:45:12.715Z,32.88
2018-07-20T16:47:40.186Z,32.86
2018-07-20T16:50:07.202Z,32.87
2018-07-20T16:52:34.137Z,33.05
2018-07-20T16:55:01.602Z,33.12
2018-07-20T16:57:28.564Z,33.92
2018-07-20T16:59:55.507Z,33.46
2018-07-20T17:02:22.701Z,33.58
2018-07-20T17:04:49.679Z,33.84
2018-07-20T17:07:16.658Z,33.91
2018-07-20T17:09:44.408Z,33.42
2018-07-20T17:12:11.376Z,33.95
2018-07-20T17:14:38.357Z,33.86
2018-07-20T17:17:05.782Z,34.00
2018-07-20T17:19:32.714Z,34.15
2018-07-20T17:21:59.709Z,33.77
2018-07-20T17:24:26.901Z,33.80
2018-07-20T17:26:53.885Z,34.37
2018-07-20T17:29:21.347Z,33.93
2018-07-20T17:31:48.767Z,34.07
2018-07-20T17:34:15.742Z,34.98
2018-07-20T17:36:42.810Z,35.02
2018-07-20T17:39:11.601Z,34.79
2018-07-20T17:41:38.604Z,35.08
2018-07-20T17:44:05.775Z,35.48
2018-07-20T17:46:33.180Z,35.05
2018-07-20T17:49:00.172Z,36.25
2018-07-20T17:51:27.184Z,36.06
2018-07-20T17:53:54.461Z,36.33
2018-07-20T17:56:21.509Z,36.45
2018-07-20T17:58:48.473Z,36.64
2018-07-20T18:01:16.117Z,36.65
2018-07-20T18:03:43.058Z,36.64
2018-07-20T18:06:10.039Z,37.21
2018-07-20T18:08:37.340Z,37.51
2018-07-20T18:11:05.143Z,37.60
2018-07-20T18:13:32.109Z,37.21
2018-07-20T18:15:59.271Z,38.22
2018-07-20T18:18:26.280Z,38.20
2018-07-20T18:20:53.245Z,37.84
2018-07-20T18:23:20.761Z,38.00
2018-07-20T18:25:47.790Z,38.06
2018-07-20T18:28:14.726Z,38.10
2018-07-20T18:30:42.128Z,38.51
2018-07-20T18:33:09.157Z,38.09
2018-07-20T18:35:36.120Z,37.84
2018-07-20T18:38:03.520Z,38.55
2018-07-20T18:40:30.494Z,38.78
2018-07-20T18:42:57.434Z,38.64
2018-07-20T18:45:24.921Z,38.72
2018-07-20T18:47:51.891Z,38.82
2018-07-20T18:50:18.859Z,38.86
2018-07-20T18:52:46.214Z,39.12
2018-07-20T18:55:13.179Z,38.92
2018-07-20T18:57:40.133Z,38.35
2018-07-20T19:00:07.499Z,38.73
2018-07-20T19:02:34.421Z,38.49
2018-07-20T19:05:01.416Z,38.48
2018-07-20T19:07:28.723Z,37.81
2018-07-20T19:09:55.747Z,38.30
2018-07-20T19:12:22.717Z,37.79
2018-07-20T19:14:50.340Z,38.13
2018-07-20T19:17:17.304Z,37.54
2018-07-20T19:19:44.257Z,37.82
2018-07-20T19:22:11.556Z,38.07
2018-07-20T19:24:38.513Z,37.75
2018-07-20T19:27:05.842Z,38.07
2018-07-20T19:29:33.300Z,37.85
2018-07-20T19:32:00.620Z,38.08
2018-07-20T19:34:27.574Z,38.19
2018-07-20T19:36:54.776Z,38.35
2018-07-20T19:39:21.730Z,37.87
2018-07-20T19:41:48.677Z,37.94
2018-07-20T19:44:16.177Z,38.27
2018-07-20T19:46:43.135Z,38.78
2018-07-20T19:49:10.131Z,38.56
2018-07-20T19:51:37.350Z,38.66
2018-07-20T19:54:04.505Z,38.83
2018-07-20T19:56:31.494Z,38.96
2018-07-20T19:58:58.909Z,39.17
2018-07-20T20:01:25.878Z,39.33
2018-07-20T20:03:52.824Z,39.87
2018-07-20T20:06:20.188Z,39.75
2018-07-20T20:08:47.154Z,40.30
2018-07-20T20:11:14.140Z,39.90
2018-07-20T20:13:41.477Z,40.11
2018-07-20T20:16:08.453Z,40.69
2018-07-20T20:18:35.489Z,40.25
2018-07-20T20:21:02.723Z,41.00
2018-07-20T20:23:29.692Z,41.15
2018-07-20T20:25:56.683Z,41.26
2018-07-20T20:28:23.915Z,41.33
2018-07-20T20:30:50.899Z,41.49
2018-07-20T20:33:17.985Z,41.23
2018-07-20T20:35:45.398Z,41.32
2018-07-20T20:38:12.352Z,41.39
2018-07-20T20:40:39.337Z,41.98
2018-07-20T20:43:06.643Z,41.63
2018-07-20T20:45:33.624Z,42.33
2018-07-20T20:48:00.550Z,41.96
2018-07-20T20:50:27.900Z,42.21
2018-07-20T20:52:54.862Z,42.74
2018-07-20T20:55:21.788Z,42.86
2018-07-20T20:57:49.079Z,43.05
2018-07-20T21:00:16.118Z,43.45
2018-07-20T21:02:43.111Z,42.81
2018-07-20T21:05:10.403Z,43.23
2018-07-20T21:07:37.415Z,43.07
2018-07-20T21:10:04.463Z,43.21
2018-07-20T21:12:31.976Z,43.67
2018-07-20T21:14:58.963Z,43.28
2018-07-20T21:17:25.911Z,43.91
2018-07-20T21:19:53.510Z,44.00
2018-07-20T21:22:20.537Z,44.05
2018-07-20T21:24:47.548Z,44.05
2018-07-20T21:27:14.997Z,44.18
2018-07-20T21:29:42.010Z,43.80
2018-07-20T21:32:08.998Z,43.93
2018-07-20T21:34:36.801Z,43.96
2018-07-20T21:37:03.853Z,44.46
2018-07-20T21:39:30.850Z,44.33
2018-07-20T21:41:58.324Z,44.94
2018-07-20T21:44:25.267Z,45.05
2018-07-20T21:46:52.263Z,44.60
2018-07-20T21:49:19.590Z,44.83
2018-07-20T21:51:47.137Z,45.39
2018-07-20T21:54:14.118Z,45.07
2018-07-20T21:56:41.713Z,45.68
2018-07-20T21:59:08.702Z,45.39
2018-07-20T22:01:35.761Z,45.51
2018-07-20T22:04:03.042Z,45.43
2018-07-20T22:06:30.060Z,45.95
2018-07-20T22:08:57.002Z,46.08
2018-07-20T22:11:24.605Z,45.68
2018-07-20T22:13:51.562Z,45.60
2018-07-20T22:16:18.557Z,45.92
2018-07-20T22:18:45.950Z,46.48
2018-07-20T22:21:12.985Z,46.52
2018-07-20T22:23:40.056Z,46.69
2018-07-20T22:26:07.293Z,46.73
2018-07-20T22:28:34.312Z,46.29
2018-07-20T22:31:01.265Z,46.40
2018-07-20T22:33:28.735Z,46.65
2018-07-20T22:35:55.897Z,46.65
2018-07-20T22:38:22.884Z,46.68
2018-07-20T22:40:50.179Z,46.86
2018-07-20T22:43:17.165Z,47.50
2018-07-20T22:45:44.106Z,47.17
2018-07-20T22:48:11.576Z,47.68
2018-07-20T22:50:38.560Z,47.19
2018-07-20T22:53:05.546Z,47.83
2018-07-20T22:55:33.033Z,47.32
2018-07-20T22:58:00.092Z,47.92
2018-07-20T23:00:27.097Z,48.00
2018-07-20T23:02:54.427Z,48.00
2018-07-20T23:05:21.400Z,47.74
2018-07-20T23:07:48.364Z,48.10
2018-07-20T23:10:15.899Z,48.39
2018-07-20T23:12:42.983Z,48.02
2018-07-20T23:15:09.987Z,48.45
2018-07-20T23:17:37.401Z,48.50
2018-07-20T23:20:04.336Z,48.17
2018-07-20T23:22:31.355Z,48.36
2018-07-20T23:24:58.860Z,48.92
2018-07-20T23:27:25.901Z,48.31
2018-07-20T23:29:52.880Z,48.86
2018-07-20T23:32:20.382Z,48.94
2018-07-20T23:34:47.307Z,48.49
2018-07-20T23:37:14.494Z,48.89
2018-07-20T23:39:41.891Z,49.01
2018-07-20T23:42:08.855Z,49.04
2018-07-20T23:44:35.857Z,48.71
2018-07-20T23:47:03.346Z,48.72
2018-07-20T23:49:30.314Z,49.12
2018-07-20T23:51:57.319Z,48.80
2018-07-20T23:54:24.605Z,49.34
2018-07-20T23:56:51.572Z,49.06
2018-07-20T23:59:18.594Z,48.90
